Time;durP1;ratioP1;P1;durP2;ratioP2;P2;SDS_P1;SDS_P2;PMS_P1;PMS_P2;Temp;Humidity;BMP_temperature;BMP_pressure;BME280_temperature;BME280_humidity;BME280_pressure;Samples;Min_cycle;Max_cycle;Signal;HPM_P1;HPM_P2
2023/08/23 00:00:45;;;;;;;14.25;11.63;;;;;;;25.45;100.00;100787.91;5113113;28;20027;-76
2023/08/23 00:03:10;;;;;;;13.38;11.68;;;;;;;25.50;100.00;100842.28;5113192;28;20550;-76
2023/08/23 00:05:35;;;;;;;12.85;11.45;;;;;;;25.31;100.00;100774.28;5112723;28;20439;-76
2023/08/23 00:08:01;;;;;;;12.02;10.73;;;;;;;25.74;100.00;100830.81;5111523;28;20032;-75
2023/08/23 00:10:26;;;;;;;13.98;11.07;;;;;;;25.49;100.00;100802.38;5112716;28;20571;-76
2023/08/23 00:12:53;;;;;;;13.57;11.65;;;;;;;25.36;100.00;100775.56;5112831;28;20027;-75
2023/08/23 00:15:19;;;;;;;12.65;11.15;;;;;;;25.45;100.00;100800.94;5112800;28;20031;-75
2023/08/23 00:17:44;;;;;;;13.35;11.13;;;;;;;25.58;100.00;100826.88;5112799;28;20413;-76
2023/08/23 00:20:10;;;;;;;14.55;11.30;;;;;;;25.29;100.00;100778.78;5112957;28;20486;-75
2023/08/23 00:22:36;;;;;;;14.40;11.57;;;;;;;25.24;100.00;100820.78;5112393;28;20618;-75
2023/08/23 00:25:01;;;;;;;12.68;11.38;;;;;;;25.10;100.00;100791.53;5111137;28;20118;-75
2023/08/23 00:27:27;;;;;;;12.52;11.27;;;;;;;25.30;100.00;100840.31;5112616;28;20032;-76
2023/08/23 00:29:53;;;;;;;15.65;11.98;;;;;;;25.12;100.00;100813.88;5110940;28;20036;-76
2023/08/23 00:32:18;;;;;;;13.85;11.63;;;;;;;25.12;100.00;100769.63;5112029;28;20055;-75
2023/08/23 00:34:43;;;;;;;13.02;11.32;;;;;;;25.38;100.00;100837.97;5112564;28;20040;-71
2023/08/23 00:37:09;;;;;;;13.65;12.35;;;;;;;25.28;100.00;100761.47;5112482;28;20023;-76
2023/08/23 00:39:34;;;;;;;14.45;12.23;;;;;;;25.29;100.00;100770.97;5112197;28;20100;-79
2023/08/23 00:42:00;;;;;;;13.20;12.00;;;;;;;25.45;100.00;100818.38;5112242;28;20119;-76
2023/08/23 00:44:25;;;;;;;17.85;12.10;;;;;;;25.28;100.00;100819.59;5112500;28;20039;-76
2023/08/23 00:46:51;;;;;;;12.77;11.40;;;;;;;25.03;100.00;100756.47;5112253;28;20032;-75
2023/08/23 00:49:16;;;;;;;13.13;11.82;;;;;;;25.21;100.00;100826.22;5112371;28;20028;-75
2023/08/23 00:51:42;;;;;;;13.43;11.82;;;;;;;24.66;100.00;100771.38;5112465;28;20404;-76
2023/08/23 00:54:09;;;;;;;15.63;12.55;;;;;;;25.03;100.00;100844.97;5112136;28;20028;-76
2023/08/23 00:56:36;;;;;;;16.17;11.98;;;;;;;24.53;100.00;100778.41;5111986;28;20024;-74
2023/08/23 00:59:02;;;;;;;14.18;12.57;;;;;;;24.66;100.00;100763.56;5111997;28;20035;-76
2023/08/23 01:01:27;;;;;;;14.55;12.48;;;;;;;24.98;100.00;100821.06;5112063;28;20020;-76
2023/08/23 01:03:57;;;;;;;13.38;12.18;;;;;;;25.00;100.00;100840.00;5112225;28;20035;-75
2023/08/23 01:06:35;;;;;;;14.73;12.77;;;;;;;24.90;100.00;100827.66;5111881;28;20114;-75
2023/08/23 01:09:11;;;;;;;13.70;12.23;;;;;;;24.69;100.00;100758.13;5113810;28;20493;-75
2023/08/23 01:11:45;;;;;;;13.55;12.25;;;;;;;25.03;100.00;100819.78;5115797;28;20035;-75
2023/08/23 01:14:28;;;;;;;15.70;12.35;;;;;;;24.29;100.00;100769.78;5115397;28;20027;-76
2023/08/23 01:16:55;;;;;;;16.70;12.20;;;;;;;24.15;100.00;100715.34;5116129;28;20020;-75
2023/08/23 01:19:26;;;;;;;14.93;12.35;;;;;;;24.75;100.00;100814.94;5115535;28;20444;-74
2023/08/23 01:21:56;;;;;;;15.80;11.90;;;;;;;25.18;100.00;100807.38;5115104;28;20034;-76
2023/08/23 01:24:22;;;;;;;13.77;12.40;;;;;;;25.05;100.00;100793.63;5114415;28;20417;-75
2023/08/23 01:26:48;;;;;;;13.55;12.02;;;;;;;24.48;100.00;100692.91;5115828;28;20119;-73
2023/08/23 01:29:14;;;;;;;14.80;13.38;;;;;;;24.64;100.00;100755.84;5115413;28;20089;-76
2023/08/23 01:31:45;;;;;;;14.43;12.90;;;;;;;24.35;100.00;100727.72;5115491;28;20440;-75
2023/08/23 01:34:27;;;;;;;16.17;13.40;;;;;;;24.42;100.00;100753.19;5115801;28;20050;-75
2023/08/23 01:36:54;;;;;;;16.27;14.57;;;;;;;24.64;100.00;100813.09;5115698;28;20028;-75
2023/08/23 01:39:24;;;;;;;15.38;13.75;;;;;;;24.46;100.00;100796.25;5115632;28;20490;-74
2023/08/23 01:41:50;;;;;;;18.08;15.45;;;;;;;23.88;100.00;100699.94;5115857;28;20095;-75
2023/08/23 01:44:15;;;;;;;21.65;15.55;;;;;;;23.93;100.00;100745.44;5115438;27;20474;-75
2023/08/23 01:46:41;;;;;;;16.48;14.75;;;;;;;24.09;100.00;100730.47;5115082;28;20146;-74
2023/08/23 01:49:06;;;;;;;19.27;14.75;;;;;;;23.86;100.00;100714.81;5114978;28;20023;-75
2023/08/23 01:51:32;;;;;;;17.38;15.25;;;;;;;24.11;100.00;100784.13;5115185;28;20401;-74
2023/08/23 01:53:57;;;;;;;17.15;14.70;;;;;;;24.39;100.00;100774.22;5114961;28;20032;-73
2023/08/23 01:56:23;;;;;;;20.05;14.68;;;;;;;23.87;100.00;100737.25;5114848;28;20036;-73
2023/08/23 01:58:48;;;;;;;15.55;13.85;;;;;;;24.13;100.00;100727.66;5114288;28;20169;-73
2023/08/23 02:01:13;;;;;;;15.98;14.20;;;;;;;23.95;100.00;100712.38;5114319;28;20031;-73
2023/08/23 02:03:39;;;;;;;18.25;15.65;;;;;;;23.87;100.00;100716.47;5114626;27;20553;-75
2023/08/23 02:06:04;;;;;;;19.77;16.13;;;;;;;23.55;100.00;100723.91;5114463;28;20543;-75
2023/08/23 02:08:30;;;;;;;17.35;15.43;;;;;;;23.74;100.00;100713.94;5113037;28;20483;-74
2023/08/23 02:10:55;;;;;;;18.33;16.38;;;;;;;23.74;100.00;100739.91;5114405;28;20038;-74
2023/08/23 02:13:20;;;;;;;17.88;16.08;;;;;;;24.08;100.00;100754.81;5114472;28;20451;-75
2023/08/23 02:15:46;;;;;;;20.75;15.55;;;;;;;23.80;100.00;100712.66;5113639;28;20115;-75
2023/08/23 02:18:11;;;;;;;17.55;15.77;;;;;;;23.91;100.00;100723.09;5114017;28;20470;-74
2023/08/23 02:20:36;;;;;;;17.17;15.40;;;;;;;24.38;100.00;100748.31;5114148;28;20115;-73
2023/08/23 02:23:02;;;;;;;16.77;15.27;;;;;;;23.88;100.00;100708.59;5114314;28;20031;-75
2023/08/23 02:25:27;;;;;;;17.30;15.45;;;;;;;23.69;100.00;100676.22;5114365;28;20028;-75
2023/08/23 02:27:53;;;;;;;17.15;15.38;;;;;;;24.09;100.00;100721.81;5113929;28;20038;-73
2023/08/23 02:30:18;;;;;;;17.60;15.43;;;;;;;24.35;100.00;100764.97;5114453;28;20031;-74
2023/08/23 02:32:43;;;;;;;18.40;15.40;;;;;;;24.19;100.00;100667.41;5114425;28;20063;-73
2023/08/23 02:35:09;;;;;;;16.65;14.70;;;;;;;24.43;100.00;100721.03;5113108;28;20122;-75
2023/08/23 02:37:34;;;;;;;19.52;15.98;;;;;;;24.08;100.00;100715.81;5113975;28;20399;-73
2023/08/23 02:40:00;;;;;;;17.38;15.52;;;;;;;24.18;100.00;100721.19;5114674;28;20111;-76
2023/08/23 02:42:25;;;;;;;19.00;16.35;;;;;;;24.01;100.00;100745.72;5114826;28;20024;-72
2023/08/23 02:44:50;;;;;;;19.17;15.93;;;;;;;23.99;100.00;100733.78;5114692;28;20028;-76
2023/08/23 02:47:16;;;;;;;20.83;17.10;;;;;;;23.58;100.00;100734.13;5112887;28;20105;-75
2023/08/23 02:49:42;;;;;;;18.65;16.42;;;;;;;23.45;100.00;100792.19;5114197;28;20031;-76
2023/08/23 02:52:07;;;;;;;19.67;16.50;;;;;;;23.07;100.00;100725.50;5113476;28;20065;-75
2023/08/23 02:54:33;;;;;;;20.42;15.75;;;;;;;23.54;100.00;100763.00;5114030;28;20028;-75
2023/08/23 02:56:58;;;;;;;16.92;15.05;;;;;;;23.19;100.00;100735.03;5113817;28;20035;-74
2023/08/23 02:59:23;;;;;;;20.92;15.13;;;;;;;23.23;100.00;100778.00;5114044;28;20065;-76
2023/08/23 03:01:49;;;;;;;16.33;14.60;;;;;;;23.14;100.00;100783.00;5113916;28;20043;-75
2023/08/23 03:04:14;;;;;;;16.30;14.77;;;;;;;22.99;100.00;100721.78;5114036;28;20188;-75
2023/08/23 03:06:40;;;;;;;17.92;14.90;;;;;;;23.76;100.00;100769.19;5113615;28;20067;-75
2023/08/23 03:09:05;;;;;;;17.88;15.10;;;;;;;23.77;100.00;100778.63;5113452;28;20027;-75
2023/08/23 03:11:30;;;;;;;18.15;15.68;;;;;;;23.21;100.00;100732.34;5113550;28;20127;-75
2023/08/23 03:13:56;;;;;;;18.20;15.15;;;;;;;23.23;100.00;100733.91;5113437;28;20022;-76
2023/08/23 03:16:22;;;;;;;21.00;16.58;;;;;;;23.47;100.00;100791.16;5113768;27;20034;-76
2023/08/23 03:18:47;;;;;;;19.55;15.70;;;;;;;23.42;100.00;100775.06;5113401;28;20473;-75
2023/08/23 03:21:12;;;;;;;17.42;15.57;;;;;;;23.35;100.00;100680.38;5112672;28;20395;-76
2023/08/23 03:23:39;;;;;;;25.02;16.80;;;;;;;23.34;100.00;100779.09;5112762;28;20413;-74
2023/08/23 03:26:05;;;;;;;18.33;15.55;;;;;;;23.78;100.00;100766.47;5112625;28;20072;-75
2023/08/23 03:28:30;;;;;;;19.65;15.55;;;;;;;23.66;100.00;100707.59;5111670;28;20028;-76
2023/08/23 03:31:02;;;;;;;22.45;16.05;;;;;;;23.36;100.00;100717.50;5113040;28;20108;-78
2023/08/23 03:33:27;;;;;;;18.90;16.23;;;;;;;24.11;100.00;100771.13;5112540;28;20020;-73
2023/08/23 03:35:53;;;;;;;19.45;16.40;;;;;;;23.77;100.00;100786.44;5112719;28;20028;-76
2023/08/23 03:38:18;;;;;;;18.20;15.73;;;;;;;24.14;100.00;100782.13;5113176;28;20062;-78
2023/08/23 03:40:44;;;;;;;20.95;15.63;;;;;;;23.86;100.00;100785.81;5111848;28;20027;-74
2023/08/23 03:43:09;;;;;;;18.55;16.05;;;;;;;24.14;100.00;100776.91;5113193;28;20027;-77
2023/08/23 03:45:35;;;;;;;20.90;15.63;;;;;;;23.98;100.00;100737.34;5113188;28;20027;-78
2023/08/23 03:48:00;;;;;;;21.50;15.88;;;;;;;24.16;100.00;100788.03;5113861;28;20122;-78
2023/08/23 03:50:26;;;;;;;17.25;15.45;;;;;;;24.16;100.00;100787.19;5110637;28;20027;-77
2023/08/23 03:52:51;;;;;;;19.17;15.43;;;;;;;23.87;100.00;100743.28;5113288;28;20026;-75
2023/08/23 03:55:17;;;;;;;18.60;14.80;;;;;;;23.77;100.00;100736.25;5112567;28;20032;-75
2023/08/23 03:57:42;;;;;;;19.27;15.80;;;;;;;23.95;100.00;100740.97;5112240;28;20031;-76
2023/08/23 04:00:08;;;;;;;18.48;15.02;;;;;;;24.28;100.00;100775.94;5111719;28;20110;-78
2023/08/23 04:02:34;;;;;;;17.27;15.52;;;;;;;24.40;100.00;100785.44;5115014;28;20027;-80
2023/08/23 04:05:01;;;;;;;18.50;15.45;;;;;;;24.11;100.00;100761.53;5113260;28;20500;-78
2023/08/23 04:07:26;;;;;;;20.70;16.25;;;;;;;24.38;100.00;100769.13;5113101;28;20031;-78
2023/08/23 04:09:52;;;;;;;21.67;16.08;;;;;;;24.25;100.00;100774.38;5113083;28;20028;-78
2023/08/23 04:12:17;;;;;;;27.25;17.60;;;;;;;24.31;100.00;100773.94;5111485;28;20023;-77
2023/08/23 04:14:42;;;;;;;28.35;17.40;;;;;;;24.08;100.00;100785.16;5112430;28;20035;-78
2023/08/23 04:17:08;;;;;;;31.65;18.50;;;;;;;23.94;100.00;100731.53;5112177;28;20473;-79
2023/08/23 04:19:33;;;;;;;28.77;18.08;;;;;;;23.98;100.00;100784.94;5111298;28;20482;-74
2023/08/23 04:21:59;;;;;;;24.50;18.13;;;;;;;23.83;100.00;100801.59;5112461;28;20097;-71
2023/08/23 04:24:24;;;;;;;28.52;17.98;;;;;;;23.97;100.00;100733.91;5112257;28;20039;-81
2023/08/23 04:26:49;;;;;;;24.08;16.55;;;;;;;23.95;100.00;100769.56;5110725;28;20027;-78
2023/08/23 04:29:15;;;;;;;23.98;16.05;;;;;;;23.99;100.00;100801.34;5112311;28;20390;-76
2023/08/23 04:31:40;;;;;;;22.23;16.92;;;;;;;23.52;100.00;100738.88;5111249;28;20023;-78
2023/08/23 04:34:06;;;;;;;20.83;16.70;;;;;;;24.12;100.00;100739.81;5112047;28;20032;-78
2023/08/23 04:36:31;;;;;;;23.23;16.10;;;;;;;23.73;100.00;100695.84;5112444;28;20062;-79
2023/08/23 04:38:57;;;;;;;21.13;16.98;;;;;;;24.42;100.00;100793.97;5112456;28;20122;-75
2023/08/23 04:41:23;;;;;;;39.72;26.90;;;;;;;24.30;100.00;100793.09;5111734;28;20070;-80
2023/08/23 04:43:48;;;;;;;52.53;32.40;;;;;;;24.51;100.00;100738.69;5112348;28;20481;-76
2023/08/23 04:46:13;;;;;;;40.97;26.42;;;;;;;24.14;100.00;100748.31;5111148;28;20058;-79
2023/08/23 04:48:39;;;;;;;41.58;27.08;;;;;;;24.28;100.00;100809.72;5110742;28;20475;-79
2023/08/23 04:51:09;;;;;;;33.95;27.13;;;;;;;24.46;100.00;100804.03;5112805;28;20028;-80
2023/08/23 04:53:35;;;;;;;33.75;25.98;;;;;;;24.41;100.00;100789.69;5112495;28;20478;-81
2023/08/23 04:56:01;;;;;;;37.40;24.98;;;;;;;24.58;100.00;100790.13;5112713;28;20074;-71
2023/08/23 04:58:32;;;;;;;30.52;23.00;;;;;;;24.52;100.00;100758.56;5112564;28;20386;-81
2023/08/23 05:01:03;;;;;;;33.05;19.92;;;;;;;25.12;100.00;100779.19;5112714;28;20032;-79
2023/08/23 05:03:29;;;;;;;24.73;18.97;;;;;;;24.96;100.00;100714.47;5112359;28;20020;-81
2023/08/23 05:05:54;;;;;;;24.02;19.48;;;;;;;24.96;100.00;100721.47;5112979;28;20330;-82
2023/08/23 05:08:19;;;;;;;20.55;18.25;;;;;;;25.57;100.00;100752.31;5113212;28;20493;-82
2023/08/23 05:10:50;;;;;;;21.95;16.98;;;;;;;25.56;100.00;100717.59;5113320;28;20024;-81
2023/08/23 05:13:15;;;;;;;22.25;17.05;;;;;;;25.94;100.00;100764.09;5113729;28;20164;-82
2023/08/23 05:15:40;;;;;;;18.50;16.45;;;;;;;25.63;100.00;100710.94;5121002;28;20055;-81
2023/08/23 05:18:06;;;;;;;22.90;17.73;;;;;;;26.12;100.00;100713.13;5116505;28;20561;-80
2023/08/23 05:20:31;;;;;;;36.85;18.27;;;;;;;26.41;100.00;100778.56;5113904;28;20028;-81
2023/08/23 05:22:57;;;;;;;22.27;17.30;;;;;;;26.61;100.00;100762.13;5112966;28;20039;-79
2023/08/23 05:25:22;;;;;;;21.45;17.02;;;;;;;26.62;100.00;100761.19;5113263;28;20039;-79
2023/08/23 05:27:48;;;;;;;22.48;15.88;;;;;;;25.92;100.00;100685.19;5113336;28;20028;-80
2023/08/23 05:30:13;;;;;;;17.55;15.35;;;;;;;26.82;100.00;100678.66;5112274;28;20034;-82
2023/08/23 05:32:38;;;;;;;23.45;14.68;;;;;;;26.46;100.00;100719.84;5114366;28;20036;-82
2023/08/23 05:35:04;;;;;;;16.45;14.57;;;;;;;26.84;100.00;100705.47;5111970;28;20130;-78
2023/08/23 05:37:30;;;;;;;17.25;14.05;;;;;;;27.30;100.00;100758.88;5112066;28;20110;-75
2023/08/23 05:39:55;;;;;;;22.65;14.98;;;;;;;27.67;100.00;100754.00;5111933;28;20390;-83
2023/08/23 05:42:20;;;;;;;17.35;15.10;;;;;;;27.63;100.00;100699.47;5111774;28;20032;-82
2023/08/23 05:44:46;;;;;;;18.80;15.70;;;;;;;27.67;100.00;100753.16;5112163;28;20402;-80
2023/08/23 05:47:11;;;;;;;17.38;14.32;;;;;;;28.00;100.00;100692.69;5111633;28;20052;-81
2023/08/23 05:49:37;;;;;;;21.88;13.95;;;;;;;27.84;100.00;100735.03;5110412;28;20031;-79
2023/08/23 05:52:02;;;;;;;17.38;13.23;;;;;;;28.61;100.00;100742.97;5112001;28;20550;-82
2023/08/23 05:54:29;;;;;;;14.50;12.85;;;;;;;28.36;100.00;100751.38;5113200;28;20065;-83
2023/08/23 05:56:59;;;;;;;20.30;13.68;;;;;;;28.03;100.00;100695.84;5115648;28;20632;-81
2023/08/23 05:59:24;;;;;;;16.17;14.48;;;;;;;29.04;100.00;100738.06;5115338;28;20028;-81
2023/08/23 06:01:50;;;;;;;17.92;14.77;;;;;;;28.73;100.00;100707.81;5114657;28;20028;-81
2023/08/23 06:04:15;;;;;;;21.23;14.85;;;;;;;28.26;100.00;100709.50;5117236;28;20478;-83
2023/08/23 06:06:40;;;;;;;16.33;14.60;;;;;;;29.11;100.00;100671.88;5116177;28;20031;-81
2023/08/23 06:09:06;;;;;;;18.95;13.95;;;;;;;28.95;100.00;100692.63;5115378;28;20026;-70
2023/08/23 06:11:32;;;;;;;17.98;14.82;;;;;;;29.10;100.00;100738.34;5115573;28;20102;-77
2023/08/23 06:13:57;;;;;;;16.13;13.85;;;;;;;29.51;100.00;100725.78;5115386;28;20073;-80
2023/08/23 06:16:22;;;;;;;18.38;13.23;;;;;;;29.70;100.00;100686.34;5115583;28;20058;-81
2023/08/23 06:18:48;;;;;;;14.43;12.85;;;;;;;28.81;100.00;100702.72;5114087;28;20031;-80
2023/08/23 06:21:13;;;;;;;15.85;13.60;;;;;;;29.74;100.00;100691.19;5114045;28;20024;-80
2023/08/23 06:23:43;;;;;;;14.45;12.10;;;;;;;30.19;100.00;100740.97;5114396;28;20034;-78
2023/08/23 06:26:10;;;;;;;16.60;11.68;;;;;;;30.57;100.00;100719.69;5115099;27;20477;-78
2023/08/23 06:28:35;;;;;;;14.85;12.35;;;;;;;30.60;100.00;100671.28;5114713;28;20490;-79
2023/08/23 06:31:01;;;;;;;16.83;12.00;;;;;;;29.87;100.00;100741.47;5114668;28;20038;-81
2023/08/23 06:33:27;;;;;;;15.75;11.77;;;;;;;30.96;100.00;100720.13;5114397;28;20031;-80
2023/08/23 06:35:52;;;;;;;14.73;11.88;;;;;;;30.74;100.00;100691.75;5115302;28;20084;-80
2023/08/23 06:38:18;;;;;;;13.52;12.13;;;;;;;30.73;100.00;100679.56;5114703;28;20110;-82
2023/08/23 06:40:43;;;;;;;14.85;12.00;;;;;;;30.48;100.00;100678.59;5114361;28;20116;-81
2023/08/23 06:43:17;;;;;;;13.20;11.68;;;;;;;30.75;100.00;100730.97;5114478;28;20016;-72
2023/08/23 06:45:42;;;;;;;13.35;11.70;;;;;;;31.89;100.00;100711.34;5113611;28;20035;-81
2023/08/23 06:48:08;;;;;;;13.55;11.57;;;;;;;31.27;100.00;100705.53;5114412;28;20413;-81
2023/08/23 06:50:35;;;;;;;14.07;11.13;;;;;;;31.61;100.00;100702.88;5113958;28;20031;-78
2023/08/23 06:53:00;;;;;;;12.38;11.18;;;;;;;31.35;100.00;100713.44;5114507;28;20089;-81
2023/08/23 06:55:27;;;;;;;11.80;10.52;;;;;;;31.52;100.00;100664.38;5114213;28;20110;-81
2023/08/23 06:57:52;;;;;;;13.23;10.93;;;;;;;32.54;100.00;100696.44;5114255;28;20158;-80
2023/08/23 07:00:18;;;;;;;15.10;11.48;;;;;;;32.82;100.00;100674.00;5113015;28;20031;-78
2023/08/23 07:02:43;;;;;;;12.32;9.80;;;;;;;32.20;100.00;100621.06;5113174;28;20024;-78
2023/08/23 07:05:09;;;;;;;13.57;10.43;;;;;;;31.97;100.00;100614.78;5112933;28;20027;-79
2023/08/23 07:07:34;;;;;;;11.73;10.45;;;;;;;32.27;100.00;100572.00;5114150;28;20024;-85
2023/08/23 07:10:00;;;;;;;11.98;10.45;;;;;;;33.11;100.00;100647.88;5114485;28;20118;-80
2023/08/23 07:12:26;;;;;;;11.20;10.13;;;;;;;33.32;100.00;100650.75;5114210;28;20020;-82
2023/08/23 07:14:51;;;;;;;16.15;12.50;;;;;;;33.21;100.00;100630.03;5114280;28;20034;-83
2023/08/23 07:17:17;;;;;;;12.77;10.63;;;;;;;33.69;100.00;100627.16;5113720;27;20500;-81
2023/08/23 07:19:42;;;;;;;14.02;9.77;;;;;;;33.42;100.00;100635.53;5113866;28;20063;-80
2023/08/23 07:22:08;;;;;;;12.30;10.00;;;;;;;33.21;100.00;100590.47;5112482;28;20038;-82
2023/08/23 07:24:33;;;;;;;11.73;10.50;;;;;;;33.46;100.00;100631.53;5112660;28;20122;-82
2023/08/23 07:26:58;;;;;;;11.85;10.15;;;;;;;33.35;100.00;100575.72;5113789;28;20047;-81
2023/08/23 07:29:24;;;;;;;16.95;11.23;;;;;;;33.72;100.00;100565.25;5113802;28;20047;-83
2023/08/23 07:31:49;;;;;;;17.52;12.20;;;;;;;33.34;100.00;100627.66;5112821;28;20031;-82
2023/08/23 07:34:16;;;;;;;13.07;10.18;;;;;;;33.90;100.00;100629.94;5113953;28;20028;-80
2023/08/23 07:36:41;;;;;;;12.75;9.13;;;;;;;33.75;100.00;100575.47;5113622;28;20036;-81
2023/08/23 07:39:07;;;;;;;9.25;8.27;;;;;;;34.07;100.00;100569.94;5112110;28;20027;-81
2023/08/23 07:41:32;;;;;;;9.13;8.02;;;;;;;34.39;100.00;100551.09;5114020;28;20233;-82
2023/08/23 07:43:57;;;;;;;13.80;8.90;;;;;;;34.46;100.00;100585.53;5112634;28;20107;-82
2023/08/23 07:46:24;;;;;;;10.23;8.75;;;;;;;34.77;100.00;100581.72;5113139;28;20134;-81
2023/08/23 07:48:49;;;;;;;9.32;8.43;;;;;;;34.57;100.00;100598.31;5112874;28;20137;-82
2023/08/23 07:51:15;;;;;;;10.43;8.00;;;;;;;34.38;100.00;100575.06;5112305;28;20097;-79
2023/08/23 07:53:42;;;;;;;10.68;8.32;;;;;;;34.52;100.00;100539.91;5112992;28;20043;-81
2023/08/23 07:56:07;;;;;;;14.60;7.80;;;;;;;34.88;100.00;100580.44;5112387;28;20413;-81
2023/08/23 07:58:33;;;;;;;9.43;7.03;;;;;;;34.11;100.00;100525.50;5113310;28;20015;-83
2023/08/23 08:00:59;;;;;;;10.98;6.78;;;;;;;34.35;100.00;100570.16;5098477;28;20035;-82
2023/08/23 08:03:28;;;;;;;9.23;6.93;;;;;;;34.06;100.00;100521.56;5093095;28;20483;-82
2023/08/23 08:05:53;;;;;;;11.82;6.93;;;;;;;34.12;100.00;100596.63;5092568;28;20028;-83
2023/08/23 08:08:18;;;;;;;9.45;7.57;;;;;;;35.27;100.00;100569.50;5093082;28;20028;-82
2023/08/23 08:10:44;;;;;;;8.85;7.55;;;;;;;34.51;100.00;100554.94;5093515;28;20515;-81
2023/08/23 08:13:09;;;;;;;10.50;7.50;;;;;;;35.19;100.00;100543.19;5093371;28;20456;-83
2023/08/23 08:15:35;;;;;;;8.30;7.50;;;;;;;35.17;100.00;100569.00;5092764;28;20028;-82
2023/08/23 08:18:00;;;;;;;9.63;7.30;;;;;;;35.61;100.00;100535.28;5092694;28;20095;-82
2023/08/23 08:20:26;;;;;;;13.27;8.25;;;;;;;34.62;100.00;100509.56;5092186;28;20028;-82
2023/08/23 08:22:52;;;;;;;10.73;7.65;;;;;;;34.96;100.00;100516.88;5092585;28;20387;-83
2023/08/23 08:25:17;;;;;;;9.45;7.28;;;;;;;35.50;100.00;100565.72;5092457;28;20024;-78
2023/08/23 08:27:43;;;;;;;8.70;7.47;;;;;;;35.36;100.00;100568.41;5092384;28;20115;-83
2023/08/23 08:30:08;;;;;;;9.32;7.82;;;;;;;35.99;100.00;100538.44;5091216;28;20039;-83
2023/08/23 08:32:34;;;;;;;9.90;7.60;;;;;;;35.00;100.00;100571.06;5092714;28;20024;-83
2023/08/23 08:35:00;;;;;;;10.05;7.57;;;;;;;35.33;100.00;100550.25;5098489;28;20027;-82
2023/08/23 08:37:26;;;;;;;9.63;7.45;;;;;;;35.73;100.00;100557.56;5096716;28;20127;-81
2023/08/23 08:39:51;;;;;;;8.43;7.65;;;;;;;36.21;100.00;100489.69;5092547;28;20060;-80
2023/08/23 08:42:17;;;;;;;10.27;7.78;;;;;;;36.54;100.00;100539.22;5092616;28;20478;-80
2023/08/23 08:44:44;;;;;;;8.20;7.30;;;;;;;36.21;100.00;100546.13;5091952;28;20081;-82
2023/08/23 08:47:09;;;;;;;8.68;7.78;;;;;;;36.02;100.00;100549.47;5092212;28;20050;-78
2023/08/23 08:49:35;;;;;;;11.40;7.65;;;;;;;35.48;100.00;100557.13;5092487;28;20032;-79
2023/08/23 08:52:04;;;;;;;8.18;7.45;;;;;;;36.00;100.00;100551.50;5092073;28;20114;-83
2023/08/23 08:54:34;;;;;;;8.20;7.43;;;;;;;35.63;100.00;100563.19;5092212;28;20046;-82
2023/08/23 08:57:00;;;;;;;9.50;8.17;;;;;;;35.85;100.00;100544.63;5092180;28;20021;-81
2023/08/23 08:59:26;;;;;;;8.93;7.88;;;;;;;35.83;100.00;100542.19;5092000;28;20089;-82
2023/08/23 09:01:54;;;;;;;10.77;7.43;;;;;;;36.40;100.00;100513.66;5107824;28;20028;-83
2023/08/23 09:04:20;;;;;;;8.30;7.55;;;;;;;35.48;100.00;100484.84;5092077;28;20032;-72
2023/08/23 09:06:45;;;;;;;8.80;7.25;;;;;;;35.85;100.00;100481.06;5092338;28;20028;-83
2023/08/23 09:09:12;;;;;;;10.60;6.82;;;;;;;35.50;100.00;100478.38;5091976;28;20410;-81
2023/08/23 09:11:45;;;;;;;10.77;7.26;;;;;;;36.50;100.00;100508.00;4997978;27;10000625;-76
2023/08/23 09:14:17;;;;;;;7.93;7.13;;;;;;;36.10;100.00;100522.00;5106969;28;20765;-74
2023/08/23 09:16:43;;;;;;;8.40;7.55;;;;;;;36.11;100.00;100457.44;5107576;28;20881;-77
2023/08/23 09:19:11;;;;;;;9.77;7.43;;;;;;;36.54;100.00;100477.41;5108858;28;20130;-74
2023/08/23 09:21:41;;;;;;;8.88;7.05;;;;;;;36.46;100.00;100507.56;5107356;28;20520;-73
2023/08/23 09:24:06;;;;;;;7.15;6.38;;;;;;;35.90;100.00;100463.56;5109130;28;20486;-75
2023/08/23 09:26:32;;;;;;;8.10;6.40;;;;;;;35.85;100.00;100439.53;5109140;28;20031;-77
2023/08/23 09:28:57;;;;;;;8.55;6.78;;;;;;;36.70;100.00;100487.66;5109512;28;20103;-75
2023/08/23 09:31:22;;;;;;;8.43;6.90;;;;;;;36.81;100.00;100479.13;5112516;28;20541;-76
2023/08/23 09:33:48;;;;;;;7.95;6.60;;;;;;;36.65;100.00;100471.53;5113051;28;20024;-78
2023/08/23 09:36:24;;;;;;;9.18;7.35;;;;;;;36.09;100.00;100491.25;5112314;28;20031;-80
2023/08/23 09:38:50;;;;;;;9.23;6.95;;;;;;;36.33;100.00;100488.13;5112713;28;20590;-76
2023/08/23 09:41:15;;;;;;;10.23;7.80;;;;;;;37.33;100.00;100458.03;5112247;28;20042;-78
2023/08/23 09:43:42;;;;;;;8.35;7.55;;;;;;;36.27;100.00;100430.59;5112194;28;20036;-78
2023/08/23 09:46:09;;;;;;;8.52;7.38;;;;;;;36.61;100.00;100462.34;5111798;28;20047;-78
2023/08/23 09:48:38;;;;;;;8.77;7.50;;;;;;;36.85;100.00;100397.31;5113167;28;20091;-78
2023/08/23 09:51:05;;;;;;;9.60;6.93;;;;;;;36.23;100.00;100421.41;5115462;28;20051;-76
2023/08/23 09:53:34;;;;;;;9.45;7.35;;;;;;;36.52;100.00;100426.44;5115699;28;20039;-78
2023/08/23 09:56:02;;;;;;;8.23;7.43;;;;;;;36.12;100.00;100406.88;5115407;28;20055;-76
2023/08/23 09:58:28;;;;;;;7.85;7.15;;;;;;;36.49;100.00;100405.59;5115535;28;20052;-77
2023/08/23 10:00:55;;;;;;;7.28;6.57;;;;;;;37.09;100.00;100384.31;5115850;28;20495;-79
2023/08/23 10:03:22;;;;;;;11.38;7.70;;;;;;;36.71;100.00;100444.22;5115554;28;20031;-78
2023/08/23 10:05:49;;;;;;;7.80;7.07;;;;;;;37.32;100.00;100439.66;5115390;28;20031;-78
2023/08/23 10:08:15;;;;;;;7.82;7.10;;;;;;;36.59;100.00;100389.34;5114362;28;20742;-79
2023/08/23 10:10:44;;;;;;;7.85;7.13;;;;;;;36.85;100.00;100395.47;5115261;28;20080;-77
2023/08/23 10:13:09;;;;;;;9.98;7.20;;;;;;;37.07;100.00;100377.56;5114164;28;20032;-80
2023/08/23 10:15:38;;;;;;;8.52;7.60;;;;;;;37.57;100.00;100427.38;5113862;28;20530;-80
2023/08/23 10:18:08;;;;;;;9.57;7.20;;;;;;;36.75;100.00;100380.97;5114161;28;20032;-77
2023/08/23 10:20:36;;;;;;;8.07;7.25;;;;;;;37.07;100.00;100436.75;5115226;28;20477;-79
2023/08/23 10:23:10;;;;;;;8.27;7.57;;;;;;;36.22;100.00;100385.31;5113975;28;20028;-79
2023/08/23 10:25:37;;;;;;;7.72;6.90;;;;;;;37.44;100.00;100405.34;5115131;28;20023;-79
2023/08/23 10:28:04;;;;;;;8.60;7.68;;;;;;;36.70;100.00;100372.81;5114876;28;20032;-79
2023/08/23 10:30:30;;;;;;;9.88;7.18;;;;;;;37.24;100.00;100358.34;5115230;28;20020;-79
2023/08/23 10:33:16;;;;;;;9.05;8.15;;;;;;;37.55;100.00;100421.47;5115338;28;20032;-78
2023/08/23 10:35:44;;;;;;;8.63;7.72;;;;;;;36.85;100.00;100431.78;5114815;27;20560;-77
2023/08/23 10:38:10;;;;;;;8.32;7.60;;;;;;;36.76;100.00;100425.88;5114950;28;20142;-77
2023/08/23 10:40:37;;;;;;;8.13;7.32;;;;;;;37.32;100.00;100363.47;5114519;28;20043;-81
2023/08/23 10:43:09;;;;;;;8.68;7.80;;;;;;;37.97;100.00;100388.28;5114308;28;20047;-77
2023/08/23 10:45:52;;;;;;;8.82;8.00;;;;;;;37.66;100.00;100407.53;5114627;28;20482;-77
2023/08/23 10:48:23;;;;;;;8.88;7.50;;;;;;;37.25;100.00;100353.88;5114342;28;20983;-77
2023/08/23 10:50:50;;;;;;;10.20;7.95;;;;;;;37.10;100.00;100409.81;5114458;28;20074;-79
2023/08/23 10:53:17;;;;;;;11.43;7.57;;;;;;;37.83;100.00;100384.03;5113606;28;20024;-80
2023/08/23 10:55:43;;;;;;;8.27;7.57;;;;;;;37.79;100.00;100329.69;5114666;28;20052;-79
2023/08/23 10:58:08;;;;;;;10.57;7.40;;;;;;;36.47;100.00;100423.53;5114260;28;20115;-78
2023/08/23 11:00:34;;;;;;;10.85;7.85;;;;;;;37.01;100.00;100404.91;5114156;28;20028;-78
2023/08/23 11:03:00;;;;;;;8.30;7.47;;;;;;;36.88;100.00;100342.06;5113049;28;20494;-73